• Join FlightAware (Why Join?)
  • Login
  • US Flag 
10:08AM EST


 

Airport Tracker/Info


-or-


 

Live Flight TrackerFlight Track Log ✈ N703RM ✈ 20-Oct-2013 ✈ KHEF - KRDU

Flight Track Log - Related Links

Times and Time Zones

All times are in EDT time to prevent confusion due to time zone crossing. See the N703RM flight status page for this flight to view local times or setup timezone preferences in your user account.

Time Position Orientation Groundspeed Altitude Reporting Facility
EDT Latitude Longitude Course Direction KTS MPH feet Rate Location/Type
10:24AM 38.7500 -77.5333 270° West 160 184 1,100  Level Potomac TRACON
10:25AM 38.7500 -77.5833 270° West 188 216 2,000 840 Climbing Potomac TRACON
10:26AM 38.7500 -77.6667 270° West 204 235 2,700 1,020 Climbing Potomac TRACON
10:27AM 38.7319 -77.7181 246° West 184 212 3,900 1,200 Climbing Washington Center
10:28AM 38.7017 -77.7756 236° Southwest 208 239 4,900 960 Climbing Washington Center
10:29AM 38.6633 -77.8331 230° Southwest 213 245 5,900 1,200 Climbing Washington Center
10:30AM 38.6289 -77.8853 230° Southwest 213 245 7,400 1,320 Climbing Washington Center
10:31AM 38.5986 -77.9400 235° Southwest 208 239 8,500 1,020 Climbing Washington Center
10:32AM 38.5664 -77.9947 233° Southwest 203 234 9,500 960 Climbing Washington Center
10:33AM 38.5317 -78.0519 232° Southwest 203 234 10,500 960 Climbing Washington Center
10:34AM 38.4994 -78.1067 233° Southwest 203 234 11,500 960 Climbing Washington Center
10:35AM 38.4647 -78.1639 232° Southwest 203 234 12,500 960 Climbing Washington Center
10:36AM 38.4344 -78.2183 235° Southwest 203 234 13,500 1,020 Climbing Washington Center
10:37AM 38.4019 -78.2728 233° Southwest 203 234 14,600 960 Climbing Washington Center
10:38AM 38.3694 -78.3272 233° Southwest 203 234 15,500 660 Climbing Washington Center
10:39AM 38.3247 -78.3706 217° Southwest 203 234 16,000 240 Climbing Washington Center
10:40AM 38.2656 -78.3950 198° South 208 239 16,000  Level Washington Center
10:41AM 38.2003 -78.4217 198° South 234 269 16,000  Level Washington Center
10:42AM 38.1372 -78.4456 197° South 246 283 16,000  Level Washington Center
10:43AM 38.0719 -78.4722 198° South 246 283 16,000  Level Washington Center
10:44AM 38.0153 -78.4936 197° South 246 283 16,000  Level Washington Center
10:45AM 37.9539 -78.5231 201° Southwest 246 283 16,000  Level Washington Center
10:46AM 37.8844 -78.5492 197° South 246 283 16,000  Level Washington Center
10:47AM 37.8192 -78.5728 196° South 246 283 16,000  Level Washington Center
10:48AM 37.7539 -78.5992 198° South 246 283 16,000  Level Washington Center
10:49AM 37.6886 -78.6228 196° South 246 283 16,100  Climbing Washington Center
10:50AM 37.6233 -78.6492 198° South 246 283 16,000 -60 Descending Washington Center
10:51AM 37.5644 -78.6728 198° South 246 283 16,000  Level Washington Center
10:52AM 37.4992 -78.6964 196° South 246 283 16,000  Level Washington Center
10:53AM 37.4378 -78.7228 199° South 246 283 16,000  Level Washington Center
10:54AM 37.3578 -78.7533 197° South 246 283 16,000  Level Washington Center
10:56AM 37.2228 -78.8053 197° South 246 283 16,000  Level Washington Center
10:57AM 37.1575 -78.8286 196° South 246 283 16,000  Level Washington Center
10:58AM 37.0922 -78.8544 198° South 246 283 16,000  Level Washington Center
10:59AM 37.0289 -78.8803 198° South 246 283 16,000  Level Washington Center
11:00AM 36.9658 -78.9036 196° South 245 282 16,000  Level Washington Center
11:01AM 36.9067 -78.9244 196° South 245 282 16,000  Level Washington Center
11:02AM 36.8414 -78.9503 198° South 245 282 16,000 -120 Level Washington Center
11:03AM 36.7781 -78.9761 198° South 245 282 15,800 -600 Descending Washington Center
11:04AM 36.7011 -78.9650 173° South 256 295 14,800 -1,200 Descending Washington Center
11:05AM 36.6222 -78.9511 172° South 271 312 13,400 -1,680 Descending Washington Center
11:05AM 36.5975 -78.9447 168° South 293 337 12,800 -2,340 Descending Washington Center
11:05AM 36.5911 -78.9447 180° South 292 336 12,700 -1,140 Descending Washington Center
11:06AM 36.5433 -78.9375 173° South 292 336 11,900 -1,380 Descending Washington Center
11:06AM 36.5103 -78.9281 167° South 288 331 11,300 -1,440 Descending Washington Center
11:07AM 36.4625 -78.9133 166° South 292 336 10,500 -1,500 Descending Washington Center
11:07AM 36.4253 -78.9064 171° South 288 331 9,800 -1,500 Descending Washington Center
11:08AM 36.3858 -78.8997 172° South 292 336 9,100 -1,320 Descending Washington Center
11:08AM 36.3486 -78.8903 168° South 282 325 8,500 -1,140 Descending Washington Center
11:09AM 36.3092 -78.8836 172° South 292 336 8,000 -540 Descending Washington Center
11:09AM 36.2739 -78.8744 168° South 274 315 8,000  Level Washington Center
11:10AM 36.2364 -78.8675 172° South 286 329 8,000  Level Washington Center
11:10AM 36.2053 -78.8586 167° South 252 290 8,000  Level Washington Center
11:11AM 36.1700 -78.8544 175° South 267 307 8,000  Level Washington Center
11:11AM 36.1347 -78.8481 172° South 239 275 8,000  Level Washington Center
11:12AM 36.1036 -78.8389 167° South 254 292 8,000  Level Washington Center
11:13AM 36.0622 -78.8319 172° South 239 275 8,000  Level Washington Center
11:13AM 36.0372 -78.8258 169° South 249 287 8,000  Level Washington Center
11:14AM 35.9936 -78.8189 173° South 243 280 8,000  Level Washington Center
11:14AM 35.9725 -78.8258 195° South 244 281 8,000 -480 Level Washington Center
11:15AM 35.9469 -78.8531 221° Southwest 218 251 7,600  Descending Washington Center
11:15AM 35.9275 -78.8728 219° Southwest 217 250 8,000 -1,980 Climbing Washington Center
11:16AM 35.9036 -78.9025 225° Southwest 208 239 5,600 -3,360 Descending Washington Center
11:17AM 35.8667 -78.9575 230° Southwest 210 242 3,200 -1,320 Descending Washington Center
11:18AM 35.8253 -79.0247 233° Southwest 226 260 3,000 -300 Descending Washington Center
11:19AM 35.7858 -79.0128 166° South 170 196 2,600 -540 Descending Washington Center
11:20AM 35.7642 -78.9658 120° Southeast 159 183 2,000 -300 Descending Washington Center
11:21AM 35.7783 -78.9128 72° East 162 186 2,000  Level Washington Center
11:22AM 35.8044 -78.8728 51° Northeast 148 170 2,000 -300 Level Washington Center
11:23AM 35.8325 -78.8356 47° Northeast 140 161 1,400 -720 Descending Washington Center
11:24AM 35.8583 -78.8083 40° Northeast 119 137 600 -840 Descending Washington Center